Aviation Digital Data Service (ADDS)

Output produced by METARs form (2154 UTC 23 April 2019)
found at http://www.aviationweather.gov/metar/data/
 
METAR text: EHKD 232125Z AUTO 08011KT 9999 NCD 15/10 Q0997 BLU 09010KT CAVOK
Conditions at: EHKD (DE KOOY (NAVY) , NL) observed 2125 UTC 23 April 2019
Temperature: 15.0°C (59°F)
Dewpoint: 10.0°C (50°F) [RH = 72%]
Pressure (altimeter): 29.44 inches Hg (997.0 mb)
Winds: from the E (80 degrees) at 13 MPH (11 knots; 5.7 m/s)
Visibility: 6 or more miles (10+ km)
Ceiling: at least 12,000 feet AGL
Clouds: sky clear below 12,000 feet AGL
Weather: no significant weather observed at this time

METAR text: EHKD 232055Z AUTO 08009KT 9999 NCD 15/10 Q0997 BLU 09010KT CAVOK
Conditions at: EHKD (DE KOOY (NAVY) , NL) observed 2055 UTC 23 April 2019
Temperature: 15.0°C (59°F)
Dewpoint: 10.0°C (50°F) [RH = 72%]
Pressure (altimeter): 29.44 inches Hg (997.0 mb)
Winds: from the E (80 degrees) at 10 MPH (9 knots; 4.6 m/s)
Visibility: 6 or more miles (10+ km)
Ceiling: at least 12,000 feet AGL
Clouds: sky clear below 12,000 feet AGL
Weather: no significant weather observed at this time

Forecast for: EHKD (DE KOOY (NAVY) , NL)
Text: TAF EHKD 231628Z 2317/2405 10011KT CAVOK
Forecast period: 1700 UTC 23 April 2019 to 0500 UTC 24 April 2019
Forecast type: FROM: standard forecast or significant change
Winds: from the E (100 degrees) at 13 MPH (11 knots; 5.7 m/s)
Visibility: 6 or more miles 10+ km)
Ceiling: unknown
Clouds: missing
Weather: NSW  (no significant weather)